createdAt,value
2023-04-15T00:00:04.202Z,9.71
2023-04-15T00:02:30.785Z,9.77
2023-04-15T00:04:57.407Z,9.73
2023-04-15T00:07:23.837Z,9.83
2023-04-15T00:09:50.306Z,9.77
2023-04-15T00:12:16.749Z,10.03
2023-04-15T00:14:43.201Z,10.00
2023-04-15T00:17:11.015Z,10.16
2023-04-15T00:19:37.503Z,9.97
2023-04-15T00:22:03.921Z,9.89
2023-04-15T00:24:30.532Z,9.91
2023-04-15T00:26:56.993Z,9.98
2023-04-15T00:29:23.461Z,9.66
2023-04-15T00:31:49.871Z,9.65
2023-04-15T00:34:17.895Z,9.82
2023-04-15T00:36:44.361Z,9.58
2023-04-15T00:39:10.787Z,9.54
2023-04-15T00:41:37.238Z,9.64
2023-04-15T00:44:03.687Z,9.65
2023-04-15T00:46:30.480Z,9.66
2023-04-15T00:48:56.957Z,9.40
2023-04-15T00:51:24.892Z,9.26
2023-04-15T00:53:51.352Z,9.18
2023-04-15T00:56:17.843Z,9.20
2023-04-15T00:58:44.295Z,9.19
2023-04-15T01:01:10.853Z,9.18
2023-04-15T01:03:37.508Z,9.12
2023-04-15T01:06:04.374Z,8.98
2023-04-15T01:08:32.522Z,9.00
2023-04-15T01:10:59.200Z,8.95
2023-04-15T01:13:25.785Z,8.93
2023-04-15T01:15:52.279Z,8.62
2023-04-15T01:18:18.759Z,8.32
2023-04-15T01:20:45.187Z,8.63
2023-04-15T01:23:11.669Z,8.70
2023-04-15T01:25:39.561Z,8.80
2023-04-15T01:28:05.985Z,8.78
2023-04-15T01:30:33.959Z,8.74
2023-04-15T01:33:00.526Z,9.09
2023-04-15T01:35:27.089Z,9.22
2023-04-15T01:37:53.549Z,9.21
2023-04-15T01:40:20.138Z,9.37
2023-04-15T01:42:47.970Z,9.47
2023-04-15T01:45:14.470Z,9.53
2023-04-15T01:47:41.015Z,9.41
2023-04-15T01:50:07.788Z,9.46
2023-04-15T01:52:34.274Z,9.46
2023-04-15T01:55:00.703Z,9.40
2023-04-15T01:57:27.140Z,9.40
2023-04-15T01:59:55.029Z,9.42
2023-04-15T02:02:21.548Z,9.44
2023-04-15T02:04:48.073Z,9.28
2023-04-15T02:07:14.539Z,9.36
2023-04-15T02:09:40.978Z,9.39
2023-04-15T02:12:07.397Z,9.28
2023-04-15T02:14:34.036Z,9.10
2023-04-15T02:17:01.832Z,8.99
2023-04-15T02:19:28.339Z,9.14
2023-04-15T02:21:54.808Z,8.87
2023-04-15T02:24:21.257Z,8.89
2023-04-15T02:26:47.760Z,9.10
2023-04-15T02:29:14.204Z,8.83
2023-04-15T02:31:40.812Z,8.75
2023-04-15T02:34:08.624Z,8.92
2023-04-15T02:36:35.076Z,9.03
2023-04-15T02:39:01.765Z,8.77
2023-04-15T02:41:28.883Z,8.65
2023-04-15T02:43:55.357Z,8.86
2023-04-15T02:46:21.890Z,8.99
2023-04-15T02:48:48.443Z,8.83
2023-04-15T02:51:16.941Z,9.00
2023-04-15T02:53:43.393Z,8.65
2023-04-15T02:56:09.933Z,8.29
2023-04-15T02:58:36.436Z,8.42
2023-04-15T03:01:02.918Z,8.33
2023-04-15T03:03:29.583Z,8.42
2023-04-15T03:05:56.101Z,8.40
2023-04-15T03:08:23.950Z,8.21
2023-04-15T03:10:50.442Z,8.48
2023-04-15T03:13:16.910Z,8.60
2023-04-15T03:15:43.488Z,8.76
2023-04-15T03:18:10.005Z,8.73
2023-04-15T03:20:36.515Z,8.73
2023-04-15T03:23:03.000Z,8.75
2023-04-15T03:25:30.904Z,8.66
2023-04-15T03:27:57.365Z,8.76
2023-04-15T03:30:23.886Z,8.81
2023-04-15T03:32:50.360Z,8.73
2023-04-15T03:35:16.882Z,8.82
2023-04-15T03:37:43.339Z,8.98
2023-04-15T03:40:10.173Z,9.15
2023-04-15T03:42:38.027Z,8.82
2023-04-15T03:45:04.960Z,8.63
2023-04-15T03:47:31.421Z,8.72
2023-04-15T03:49:58.097Z,8.60
2023-04-15T03:52:24.514Z,8.47
2023-04-15T03:54:50.993Z,8.51
2023-04-15T03:57:17.464Z,8.44
2023-04-15T03:59:45.334Z,8.27
2023-04-15T04:02:11.828Z,8.35
2023-04-15T04:04:38.430Z,8.37
2023-04-15T04:07:05.056Z,8.32
2023-04-15T04:09:31.478Z,8.22
2023-04-15T04:11:57.941Z,8.33
2023-04-15T04:14:24.384Z,8.44
2023-04-15T04:16:52.237Z,8.48
2023-04-15T04:19:18.705Z,8.37
2023-04-15T04:21:45.252Z,8.30
2023-04-15T04:24:11.825Z,8.39
2023-04-15T04:26:38.241Z,8.38
2023-04-15T04:29:04.678Z,8.60
2023-04-15T04:31:31.182Z,8.68
2023-04-15T04:33:59.057Z,8.70
2023-04-15T04:36:25.471Z,8.55
2023-04-15T04:38:51.900Z,8.63
2023-04-15T04:41:18.394Z,8.70
2023-04-15T04:43:44.935Z,8.93
2023-04-15T04:46:11.409Z,8.93
2023-04-15T04:48:37.939Z,8.75
2023-04-15T04:51:05.853Z,8.71
2023-04-15T04:53:32.451Z,9.00
2023-04-15T04:55:58.965Z,9.17
2023-04-15T04:58:25.436Z,9.07
2023-04-15T05:00:51.850Z,9.03
2023-04-15T05:03:18.387Z,8.88
2023-04-15T05:05:44.882Z,8.90
2023-04-15T05:08:12.706Z,9.08
2023-04-15T05:10:39.137Z,9.01
2023-04-15T05:13:05.620Z,8.82
2023-04-15T05:15:32.053Z,8.80
2023-04-15T05:17:58.690Z,8.76
2023-04-15T05:20:25.155Z,8.65
2023-04-15T05:22:51.609Z,8.76
2023-04-15T05:25:19.473Z,8.53
2023-04-15T05:27:46.041Z,8.80
2023-04-15T05:30:13.658Z,8.78
2023-04-15T05:32:40.529Z,8.87
2023-04-15T05:35:07.303Z,8.92
2023-04-15T05:37:33.786Z,8.85
2023-04-15T05:40:00.301Z,8.78
2023-04-15T05:42:28.292Z,8.61
2023-04-15T05:44:54.782Z,8.52
2023-04-15T05:47:21.241Z,8.72
2023-04-15T05:49:47.743Z,8.79
2023-04-15T05:52:14.211Z,8.76
2023-04-15T05:54:40.707Z,8.69
2023-04-15T05:57:07.154Z,9.03
2023-04-15T05:59:34.993Z,8.99
2023-04-15T06:02:01.459Z,9.23
2023-04-15T06:04:28.321Z,9.03
2023-04-15T06:06:54.904Z,8.84
2023-04-15T06:09:21.388Z,8.78
2023-04-15T06:11:47.856Z,9.04
2023-04-15T06:14:14.343Z,9.22
2023-04-15T06:16:42.229Z,8.99
2023-04-15T06:19:08.694Z,8.93
2023-04-15T06:21:35.138Z,9.34
2023-04-15T06:24:01.666Z,9.13
2023-04-15T06:26:28.279Z,9.32
2023-04-15T06:28:54.722Z,8.98
2023-04-15T06:31:21.190Z,8.67
2023-04-15T06:33:48.992Z,8.63
2023-04-15T06:36:15.470Z,9.02
2023-04-15T06:38:41.884Z,9.24
2023-04-15T06:41:08.392Z,9.02
2023-04-15T06:43:34.906Z,9.19
2023-04-15T06:46:01.428Z,8.73
2023-04-15T06:48:27.912Z,8.88
2023-04-15T06:50:55.848Z,8.97
2023-04-15T06:53:22.297Z,9.16
2023-04-15T06:55:48.726Z,9.39
2023-04-15T06:58:15.225Z,9.37
2023-04-15T07:00:41.713Z,9.35
2023-04-15T07:03:08.282Z,9.68
2023-04-15T07:05:34.748Z,9.64
2023-04-15T07:08:02.662Z,9.68
2023-04-15T07:10:29.139Z,9.83
2023-04-15T07:12:55.592Z,9.25
2023-04-15T07:15:22.168Z,8.92
2023-04-15T07:17:48.774Z,9.24
2023-04-15T07:20:15.236Z,9.77
2023-04-15T07:22:41.848Z,9.89
2023-04-15T07:25:09.927Z,9.77
2023-04-15T07:27:36.425Z,9.53
2023-04-15T07:30:02.900Z,9.43
2023-04-15T07:32:29.399Z,9.71
2023-04-15T07:34:55.920Z,10.01
2023-04-15T07:37:22.390Z,9.98
2023-04-15T07:39:48.800Z,9.71
2023-04-15T07:42:16.652Z,9.81
2023-04-15T07:44:43.147Z,9.88
2023-04-15T07:47:09.594Z,9.75
2023-04-15T07:49:36.072Z,9.77
2023-04-15T07:52:02.653Z,10.09
2023-04-15T07:54:29.101Z,10.49
2023-04-15T07:56:55.549Z,11.04
2023-04-15T07:59:23.394Z,11.06
2023-04-15T08:01:49.871Z,10.97
2023-04-15T08:04:16.728Z,10.72
2023-04-15T08:06:43.254Z,10.59
2023-04-15T08:09:09.728Z,10.91
2023-04-15T08:11:38.566Z,11.40
2023-04-15T08:14:05.122Z,11.20
2023-04-15T08:16:33.058Z,11.48
2023-04-15T08:18:59.749Z,11.33
2023-04-15T08:21:26.592Z,11.11
2023-04-15T08:23:53.316Z,11.06
2023-04-15T08:26:20.222Z,10.95
2023-04-15T08:28:46.761Z,11.18
2023-04-15T08:31:13.290Z,11.10
2023-04-15T08:33:41.174Z,11.44
2023-04-15T08:36:07.662Z,10.92
2023-04-15T08:38:34.387Z,11.19
2023-04-15T08:41:01.460Z,11.47
2023-04-15T08:43:28.477Z,11.55
2023-04-15T08:45:54.996Z,11.35
2023-04-15T08:48:21.686Z,11.52
2023-04-15T08:50:49.485Z,11.54
2023-04-15T08:53:15.914Z,11.67
2023-04-15T08:55:43.024Z,11.96
2023-04-15T08:58:09.861Z,12.46
2023-04-15T09:00:36.355Z,12.40
2023-04-15T09:03:03.057Z,12.11
2023-04-15T09:05:30.843Z,11.93
2023-04-15T09:07:58.761Z,11.87
2023-04-15T09:10:25.281Z,11.67
2023-04-15T09:12:51.722Z,11.69
2023-04-15T09:15:18.156Z,11.77
2023-04-15T09:17:44.750Z,11.80
2023-04-15T09:20:11.942Z,12.09
2023-04-15T09:22:38.567Z,12.46
2023-04-15T09:25:06.961Z,12.24
2023-04-15T09:27:36.419Z,12.85
2023-04-15T09:30:02.997Z,12.99
2023-04-15T09:32:29.507Z,12.64
2023-04-15T09:34:56.122Z,12.74
2023-04-15T09:37:35.242Z,12.69
2023-04-15T09:40:01.711Z,12.81
2023-04-15T09:42:29.650Z,12.74
2023-04-15T09:44:56.210Z,12.76
2023-04-15T09:47:28.985Z,12.45
2023-04-15T09:49:55.816Z,12.64
2023-04-15T09:52:22.308Z,12.00
2023-04-15T09:54:48.794Z,12.16
2023-04-15T09:57:15.274Z,12.46
2023-04-15T09:59:43.118Z,12.13
2023-04-15T10:02:09.724Z,12.17
2023-04-15T10:04:36.639Z,12.12
2023-04-15T10:07:03.990Z,12.09
2023-04-15T10:09:30.564Z,12.22
2023-04-15T10:11:57.064Z,12.41
2023-04-15T10:14:23.569Z,12.08
2023-04-15T10:16:51.753Z,12.38
2023-04-15T10:19:18.549Z,12.46
2023-04-15T10:21:44.980Z,12.58
2023-04-15T10:24:11.574Z,12.53
2023-04-15T10:26:38.165Z,12.86
2023-04-15T10:29:04.619Z,13.21
2023-04-15T10:31:31.487Z,12.81
2023-04-15T10:33:59.651Z,12.47
2023-04-15T10:36:27.776Z,12.69
2023-04-15T10:38:54.326Z,13.12
2023-04-15T10:41:21.887Z,13.25
2023-04-15T10:43:49.190Z,13.08
2023-04-15T10:46:17.514Z,12.57
2023-04-15T10:48:47.159Z,12.79
2023-04-15T10:51:15.255Z,12.95
2023-04-15T10:53:41.986Z,13.06
2023-04-15T10:56:08.466Z,13.38
2023-04-15T10:58:41.316Z,12.82
2023-04-15T11:01:07.867Z,12.69
2023-04-15T11:03:41.467Z,12.98
2023-04-15T11:06:08.244Z,13.60
2023-04-15T11:08:55.036Z,13.00
2023-04-15T11:11:21.516Z,12.96
2023-04-15T11:13:48.187Z,13.26
2023-04-15T11:16:14.828Z,13.00
2023-04-15T11:18:41.344Z,12.91
2023-04-15T11:21:08.107Z,12.47
2023-04-15T11:23:35.575Z,12.31
2023-04-15T11:26:04.025Z,12.27
2023-04-15T11:28:30.909Z,12.52
2023-04-15T11:30:57.536Z,12.52
2023-04-15T11:33:24.317Z,12.51
2023-04-15T11:35:50.901Z,12.42
2023-04-15T11:38:17.357Z,12.24
2023-04-15T11:40:46.804Z,12.20
2023-04-15T11:43:16.041Z,11.96
2023-04-15T11:45:49.457Z,12.00
2023-04-15T11:48:15.948Z,12.07
2023-04-15T11:50:42.449Z,11.91
2023-04-15T11:53:09.719Z,11.69
2023-04-15T11:55:42.956Z,11.55
2023-04-15T11:58:10.099Z,11.45
2023-04-15T12:00:38.142Z,11.49
2023-04-15T12:03:14.292Z,11.87
2023-04-15T12:05:59.267Z,11.77
2023-04-15T12:08:25.841Z,11.54
2023-04-15T12:10:52.277Z,11.50
2023-04-15T12:13:18.836Z,11.66
2023-04-15T12:15:46.737Z,11.77
2023-04-15T12:18:17.251Z,12.03
2023-04-15T12:20:48.408Z,12.39
2023-04-15T12:23:14.870Z,12.62
2023-04-15T12:25:41.389Z,12.34
2023-04-15T12:28:10.833Z,12.25
2023-04-15T12:30:37.377Z,12.43
2023-04-15T12:33:05.328Z,13.10
2023-04-15T12:35:31.962Z,13.04
2023-04-15T12:37:58.446Z,12.81
2023-04-15T12:40:24.989Z,12.59
2023-04-15T12:42:51.452Z,13.06
2023-04-15T12:45:17.919Z,12.94
2023-04-15T12:47:44.425Z,12.81
2023-04-15T12:50:12.679Z,12.48
2023-04-15T12:52:39.116Z,12.11
2023-04-15T12:55:06.002Z,12.22
2023-04-15T12:57:32.458Z,12.28
2023-04-15T12:59:58.905Z,12.46
2023-04-15T13:02:25.866Z,12.23
2023-04-15T13:04:52.463Z,12.19
2023-04-15T13:07:20.371Z,11.76
2023-04-15T13:09:46.826Z,11.38
2023-04-15T13:12:13.862Z,11.57
2023-04-15T13:14:40.357Z,11.82
2023-04-15T13:17:06.848Z,11.76
2023-04-15T13:19:33.393Z,12.06
2023-04-15T13:21:59.904Z,12.25
2023-04-15T13:24:27.828Z,12.19
2023-04-15T13:26:54.612Z,11.89
2023-04-15T13:29:21.232Z,11.85
2023-04-15T13:31:47.728Z,11.72
2023-04-15T13:34:14.284Z,11.52
2023-04-15T13:36:40.783Z,11.36
2023-04-15T13:39:07.278Z,11.48
2023-04-15T13:41:35.435Z,11.48
2023-04-15T13:44:01.946Z,11.50
2023-04-15T13:46:28.557Z,11.44
2023-04-15T13:48:55.032Z,11.68
2023-04-15T13:51:21.710Z,11.47
2023-04-15T13:53:48.248Z,11.68
2023-04-15T13:56:14.727Z,11.44
2023-04-15T13:58:42.600Z,11.40
2023-04-15T14:01:11.067Z,11.32
2023-04-15T14:03:38.036Z,11.25
2023-04-15T14:06:04.884Z,11.13
2023-04-15T14:08:31.331Z,11.37
2023-04-15T14:10:57.808Z,11.59
2023-04-15T14:13:24.536Z,11.49
2023-04-15T14:15:52.473Z,11.58
2023-04-15T14:18:28.652Z,12.07
2023-04-15T14:21:16.345Z,11.96
2023-04-15T14:23:43.132Z,11.88
2023-04-15T14:26:09.649Z,12.15
2023-04-15T14:28:36.121Z,11.98
2023-04-15T14:31:03.985Z,11.81
2023-04-15T14:33:30.528Z,11.86
2023-04-15T14:35:57.004Z,11.84
2023-04-15T14:38:23.554Z,11.82
2023-04-15T14:40:50.013Z,11.75
2023-04-15T14:43:16.431Z,11.59
2023-04-15T14:45:44.607Z,11.69
2023-04-15T14:48:13.403Z,11.66
2023-04-15T14:50:40.168Z,11.91
2023-04-15T14:53:06.705Z,11.80
2023-04-15T14:55:33.223Z,11.53
2023-04-15T14:57:59.823Z,11.27
2023-04-15T15:00:26.454Z,11.18
2023-04-15T15:02:53.104Z,11.13
2023-04-15T15:05:21.444Z,11.11
2023-04-15T15:07:47.980Z,10.78
2023-04-15T15:10:14.536Z,10.71
2023-04-15T15:12:41.017Z,10.63
2023-04-15T15:15:19.528Z,10.40
2023-04-15T15:17:54.418Z,10.07
2023-04-15T15:20:22.789Z,9.91
2023-04-15T15:22:49.249Z,9.77
2023-04-15T15:25:15.705Z,9.77
2023-04-15T15:27:42.284Z,9.53
2023-04-15T15:30:09.297Z,9.24
2023-04-15T15:32:35.902Z,9.40
2023-04-15T15:35:02.404Z,9.35
2023-04-15T15:37:31.170Z,9.65
2023-04-15T15:39:57.665Z,9.90
2023-04-15T15:42:24.225Z,9.87
2023-04-15T15:44:50.680Z,9.83
2023-04-15T15:47:17.206Z,9.85
2023-04-15T15:49:43.666Z,9.96
2023-04-15T15:52:10.972Z,9.61
2023-04-15T15:54:39.729Z,9.49
2023-04-15T15:57:06.196Z,9.87
2023-04-15T15:59:32.705Z,9.90
2023-04-15T16:01:59.310Z,10.20
2023-04-15T16:04:26.202Z,10.48
2023-04-15T16:06:56.831Z,10.56
2023-04-15T16:09:23.456Z,10.06
2023-04-15T16:11:51.388Z,9.81
2023-04-15T16:14:17.897Z,9.72
2023-04-15T16:16:44.366Z,9.45
2023-04-15T16:19:10.873Z,9.18
2023-04-15T16:21:37.312Z,9.23
2023-04-15T16:24:03.901Z,9.18
2023-04-15T16:26:30.465Z,9.41
2023-04-15T16:28:58.387Z,9.59
2023-04-15T16:31:24.886Z,9.50
2023-04-15T16:33:51.578Z,9.74
2023-04-15T16:36:18.023Z,9.86
2023-04-15T16:38:44.554Z,9.66
2023-04-15T16:41:10.977Z,9.73
2023-04-15T16:43:37.430Z,9.51
2023-04-15T16:46:05.319Z,9.55
2023-04-15T16:48:31.774Z,9.65
2023-04-15T16:50:58.281Z,9.28
2023-04-15T16:53:24.758Z,9.27
2023-04-15T16:55:51.251Z,9.22
2023-04-15T16:58:17.811Z,8.88
2023-04-15T17:00:44.284Z,8.66
2023-04-15T17:03:12.280Z,8.40
2023-04-15T17:05:38.864Z,8.44
2023-04-15T17:08:05.291Z,8.43
2023-04-15T17:10:31.771Z,8.35
2023-04-15T17:12:58.392Z,8.45
2023-04-15T17:15:25.071Z,8.45
2023-04-15T17:17:51.649Z,8.46
2023-04-15T17:20:19.803Z,8.48
2023-04-15T17:22:46.297Z,8.44
2023-04-15T17:25:13.551Z,8.47
2023-04-15T17:27:39.980Z,8.58
2023-04-15T17:30:07.417Z,8.46
2023-04-15T17:32:33.896Z,8.70
2023-04-15T17:35:00.408Z,8.71
2023-04-15T17:37:28.431Z,8.66
2023-04-15T17:39:54.843Z,8.76
2023-04-15T17:42:21.329Z,8.77
2023-04-15T17:44:47.820Z,8.52
2023-04-15T17:47:16.917Z,8.41
2023-04-15T17:49:43.672Z,8.47
2023-04-15T17:52:10.153Z,8.79
2023-04-15T17:54:38.085Z,8.85
2023-04-15T17:57:04.639Z,8.82
2023-04-15T17:59:32.239Z,8.77
2023-04-15T18:01:58.960Z,8.58
2023-04-15T18:04:26.920Z,8.76
2023-04-15T18:06:53.748Z,9.02
2023-04-15T18:09:20.210Z,9.06
2023-04-15T18:11:48.049Z,9.25
2023-04-15T18:14:20.339Z,9.19
2023-04-15T18:16:57.544Z,9.38
2023-04-15T18:19:24.064Z,9.39
2023-04-15T18:21:50.578Z,9.38
2023-04-15T18:24:17.090Z,9.38
2023-04-15T18:26:43.558Z,9.37
2023-04-15T18:29:11.506Z,9.37
2023-04-15T18:31:38.027Z,9.22
2023-04-15T18:34:04.785Z,9.34
2023-04-15T18:36:31.359Z,9.57
2023-04-15T18:38:57.848Z,9.67
2023-04-15T18:41:24.342Z,9.54
2023-04-15T18:43:50.799Z,9.66
2023-04-15T18:46:18.703Z,9.70
2023-04-15T18:48:45.144Z,9.88
2023-04-15T18:51:11.625Z,10.02
2023-04-15T18:53:38.077Z,10.02
2023-04-15T18:56:04.705Z,10.23
2023-04-15T18:59:27.292Z,10.16
2023-04-15T19:01:19.452Z,10.00
2023-04-15T19:03:46.058Z,9.69
2023-04-15T19:06:12.664Z,9.57
2023-04-15T19:08:39.106Z,9.61
2023-04-15T19:11:05.609Z,9.41
2023-04-15T19:13:32.095Z,9.27
2023-04-15T19:15:58.490Z,9.29
2023-04-15T19:18:26.316Z,8.95
2023-04-15T19:20:52.803Z,9.19
2023-04-15T19:23:19.334Z,9.16
2023-04-15T19:25:45.789Z,9.21
2023-04-15T19:28:12.296Z,8.96
2023-04-15T19:30:38.777Z,8.91
2023-04-15T19:33:05.272Z,8.77
2023-04-15T19:35:33.520Z,8.90
2023-04-15T19:38:00.268Z,9.21
2023-04-15T19:40:26.875Z,8.96
2023-04-15T19:42:53.492Z,9.00
2023-04-15T19:45:19.958Z,9.00
2023-04-15T19:47:46.638Z,9.00
2023-04-15T19:50:13.141Z,8.91
2023-04-15T19:52:41.097Z,8.95
2023-04-15T19:55:07.832Z,8.91
2023-04-15T19:57:34.273Z,8.83
2023-04-15T20:00:00.907Z,8.77
2023-04-15T20:02:28.840Z,8.71
2023-04-15T20:04:55.428Z,8.73
2023-04-15T20:07:21.834Z,8.62
2023-04-15T20:09:49.757Z,8.70
2023-04-15T20:12:49.934Z,8.62
2023-04-15T20:15:03.270Z,8.44
2023-04-15T20:17:32.202Z,8.13
2023-04-15T20:19:58.700Z,8.05
2023-04-15T20:22:25.136Z,8.17
2023-04-15T20:24:53.030Z,8.21
2023-04-15T20:27:21.978Z,8.22
2023-04-15T20:29:48.420Z,8.16
2023-04-15T20:32:14.863Z,8.13
2023-04-15T20:34:41.281Z,8.13
2023-04-15T20:37:07.793Z,8.28
2023-04-15T20:39:34.303Z,8.42
2023-04-15T20:42:02.117Z,8.31
2023-04-15T20:44:28.805Z,8.32
2023-04-15T20:46:55.241Z,8.33
2023-04-15T20:49:21.705Z,8.30
2023-04-15T20:51:48.802Z,8.30
2023-04-15T20:54:15.250Z,8.45
2023-04-15T20:56:41.716Z,8.39
2023-04-15T20:59:09.581Z,8.44
2023-04-15T21:01:36.059Z,8.36
2023-04-15T21:04:02.641Z,7.90
2023-04-15T21:06:29.078Z,7.82
2023-04-15T21:08:55.531Z,7.95
2023-04-15T21:11:43.023Z,7.79
2023-04-15T21:14:09.907Z,7.89
2023-04-15T21:16:36.359Z,7.97
2023-04-15T21:19:02.855Z,8.26
2023-04-15T21:21:29.734Z,8.06
2023-04-15T21:23:56.234Z,8.13
2023-04-15T21:26:22.693Z,8.19
2023-04-15T21:28:49.208Z,8.14
2023-04-15T21:31:17.052Z,8.11
2023-04-15T21:33:43.504Z,8.03
2023-04-15T21:36:09.954Z,7.91
2023-04-15T21:38:36.363Z,7.97
2023-04-15T21:41:02.877Z,7.82
2023-04-15T21:43:29.326Z,7.89
2023-04-15T21:46:22.923Z,7.82
2023-04-15T21:48:43.694Z,7.70
2023-04-15T21:51:10.109Z,7.88
2023-04-15T21:53:36.575Z,7.97
2023-04-15T21:56:03.045Z,7.96
2023-04-15T21:58:29.485Z,7.81
2023-04-15T22:00:55.958Z,7.92
2023-04-15T22:03:22.541Z,8.04
2023-04-15T22:05:50.513Z,8.14
2023-04-15T22:08:16.999Z,8.06
2023-04-15T22:10:43.446Z,8.11
2023-04-15T22:13:09.874Z,7.84
2023-04-15T22:15:36.487Z,7.59
2023-04-15T22:18:03.027Z,7.80
2023-04-15T22:20:29.476Z,7.91
2023-04-15T22:22:57.359Z,8.02
2023-04-15T22:25:23.772Z,7.78
2023-04-15T22:27:50.213Z,7.90
2023-04-15T22:30:16.663Z,7.77
2023-04-15T22:32:43.193Z,7.65
2023-04-15T22:35:09.714Z,7.64
2023-04-15T22:37:36.143Z,7.55
2023-04-15T22:40:04.273Z,7.75
2023-04-15T22:42:30.794Z,7.83
2023-04-15T22:44:57.223Z,7.89
2023-04-15T22:47:23.757Z,7.88
2023-04-15T22:49:50.221Z,7.70
2023-04-15T22:52:29.411Z,7.96
2023-04-15T22:54:56.902Z,7.92
2023-04-15T22:57:24.924Z,7.96
2023-04-15T22:59:51.387Z,7.98
2023-04-15T23:02:17.971Z,8.00
2023-04-15T23:04:44.704Z,8.09
2023-04-15T23:07:11.266Z,7.59
2023-04-15T23:09:37.900Z,7.48
2023-04-15T23:12:04.363Z,7.45
2023-04-15T23:14:32.234Z,7.45
2023-04-15T23:16:58.700Z,7.25
2023-04-15T23:19:25.183Z,7.40
2023-04-15T23:21:51.607Z,7.65
2023-04-15T23:24:18.093Z,7.66
2023-04-15T23:26:44.539Z,7.43
2023-04-15T23:29:11.197Z,7.25
2023-04-15T23:31:39.162Z,7.33
2023-04-15T23:34:05.687Z,7.46
2023-04-15T23:36:32.139Z,7.67
2023-04-15T23:38:58.640Z,7.87
2023-04-15T23:41:25.117Z,7.94
2023-04-15T23:43:51.656Z,7.67
2023-04-15T23:46:18.127Z,7.94
2023-04-15T23:48:45.993Z,8.22
2023-04-15T23:51:12.428Z,8.33
2023-04-15T23:53:38.893Z,8.19
2023-04-15T23:56:05.702Z,7.72
2023-04-15T23:58:33.990Z,7.73
